createdAt,value
2019-05-23T00:00:49.419Z,3.10
2019-05-23T00:03:21.661Z,2.73
2019-05-23T00:05:55.128Z,2.80
2019-05-23T00:08:27.913Z,2.70
2019-05-23T00:11:15.405Z,2.77
2019-05-23T00:13:49.229Z,3.03
2019-05-23T00:16:23.403Z,3.07
2019-05-23T00:18:53.658Z,3.10
2019-05-23T00:21:24.274Z,3.00
2019-05-23T00:23:54.495Z,3.30
2019-05-23T00:26:43.775Z,3.17
2019-05-23T00:29:15.023Z,3.53
2019-05-23T00:31:48.138Z,3.40
2019-05-23T00:34:17.889Z,3.00
2019-05-23T00:36:48.550Z,3.30
2019-05-23T00:39:18.776Z,3.17
2019-05-23T00:41:48.806Z,3.77
2019-05-23T00:44:18.219Z,3.30
2019-05-23T00:46:49.039Z,3.87
2019-05-23T00:49:19.241Z,3.10
2019-05-23T00:51:48.377Z,3.23
2019-05-23T00:54:18.386Z,3.17
2019-05-23T00:56:47.882Z,3.57
2019-05-23T00:59:26.595Z,3.87
2019-05-23T01:01:49.492Z,3.40
2019-05-23T01:04:19.120Z,3.63
2019-05-23T01:06:49.263Z,3.67
2019-05-23T01:09:18.498Z,3.30
2019-05-23T01:11:48.004Z,3.93
2019-05-23T01:14:18.366Z,3.40
2019-05-23T01:16:48.190Z,3.67
2019-05-23T01:19:17.858Z,3.23
2019-05-23T01:21:58.370Z,3.63
2019-05-23T01:24:35.907Z,3.53
2019-05-23T01:27:07.208Z,3.80
2019-05-23T01:29:43.358Z,3.33
2019-05-23T01:32:18.228Z,3.70
2019-05-23T01:34:47.651Z,3.77
2019-05-23T01:37:18.288Z,3.87
2019-05-23T01:39:47.711Z,3.37
2019-05-23T02:08:32.170Z,3.53
2019-05-23T02:11:02.201Z,3.77
2019-05-23T02:13:32.520Z,3.07
2019-05-23T02:16:02.340Z,3.83
2019-05-23T02:18:32.191Z,4.17
2019-05-23T02:21:01.557Z,3.73
2019-05-23T02:23:31.235Z,4.30
2019-05-23T02:26:00.391Z,3.87
2019-05-23T02:28:32.410Z,3.50
2019-05-23T02:31:01.845Z,4.10
2019-05-23T02:33:31.686Z,3.77
2019-05-23T02:36:01.629Z,4.07
2019-05-23T02:39:20.323Z,3.40
2019-05-23T02:42:01.362Z,3.80
2019-05-23T02:44:31.990Z,3.70
2019-05-23T02:47:19.390Z,4.17
2019-05-23T02:49:49.787Z,4.30
2019-05-23T02:52:28.790Z,3.60
2019-05-23T02:54:58.047Z,3.97
2019-05-23T02:57:30.456Z,4.10
2019-05-23T03:00:11.003Z,3.90
2019-05-23T03:02:56.402Z,4.40
2019-05-23T03:05:27.856Z,4.20
2019-05-23T03:08:01.268Z,4.50
2019-05-23T03:10:54.905Z,3.90
2019-05-23T03:13:28.341Z,4.40
2019-05-23T03:15:58.233Z,4.20
2019-05-23T03:18:34.251Z,4.33
2019-05-23T03:21:01.688Z,4.60
2019-05-23T03:23:33.110Z,3.90
2019-05-23T03:26:40.598Z,4.23
2019-05-23T03:29:11.493Z,4.30
2019-05-23T03:31:58.990Z,4.30
2019-05-23T03:34:32.345Z,4.47
2019-05-23T03:37:01.852Z,4.47
2019-05-23T03:39:30.987Z,5.03
2019-05-23T03:42:01.075Z,4.50
2019-05-23T03:44:30.907Z,4.20
2019-05-23T03:47:00.419Z,4.33
2019-05-23T03:49:31.423Z,4.20
2019-05-23T03:52:01.055Z,5.00
2019-05-23T03:54:32.277Z,4.80
2019-05-23T03:57:01.747Z,4.70
2019-05-23T03:59:31.128Z,4.83
2019-05-23T04:02:02.084Z,5.07
2019-05-23T04:04:31.913Z,4.57
2019-05-23T04:07:01.353Z,4.97
2019-05-23T04:09:31.169Z,5.40
2019-05-23T04:12:00.646Z,4.87
2019-05-23T04:14:29.967Z,5.50
2019-05-23T04:16:59.291Z,5.07
2019-05-23T04:19:28.856Z,5.40
2019-05-23T04:21:57.971Z,5.40
2019-05-23T04:24:27.235Z,5.50
2019-05-23T04:26:56.796Z,5.60
2019-05-23T04:29:26.039Z,5.63
2019-05-23T04:32:07.184Z,5.30
2019-05-23T04:34:27.264Z,5.50
2019-05-23T04:36:56.431Z,5.60
2019-05-23T04:39:25.761Z,6.00
2019-05-23T04:41:55.518Z,5.80
2019-05-23T04:44:24.587Z,6.33
2019-05-23T04:46:54.334Z,6.20
2019-05-23T04:49:24.518Z,6.70
2019-05-23T04:51:53.598Z,6.50
2019-05-23T04:54:23.096Z,6.60
2019-05-23T04:56:52.201Z,6.47
2019-05-23T04:59:22.090Z,6.77
2019-05-23T05:01:52.282Z,6.30
2019-05-23T05:04:21.565Z,6.53
2019-05-23T05:06:50.674Z,6.80
2019-05-23T05:09:29.174Z,6.53
2019-05-23T05:12:00.253Z,7.00
2019-05-23T05:14:30.559Z,7.57
2019-05-23T05:17:00.237Z,7.57
2019-05-23T05:19:29.757Z,6.80
2019-05-23T05:21:59.203Z,7.70
2019-05-23T05:24:28.488Z,7.47
2019-05-23T05:26:57.816Z,7.00
2019-05-23T05:29:27.018Z,7.37
2019-05-23T05:31:56.424Z,7.60
2019-05-23T05:34:25.884Z,6.83
2019-05-23T05:36:55.014Z,7.93
2019-05-23T05:39:24.785Z,7.33
2019-05-23T05:41:54.268Z,7.97
2019-05-23T05:44:23.808Z,7.23
2019-05-23T05:46:53.126Z,6.43
2019-05-23T05:49:22.333Z,6.50
2019-05-23T05:51:51.914Z,6.80
2019-05-23T05:54:21.707Z,6.80
2019-05-23T05:56:50.874Z,7.07
2019-05-23T05:59:20.317Z,6.70
2019-05-23T06:01:50.089Z,7.60
2019-05-23T06:04:19.283Z,6.50
2019-05-23T06:06:57.339Z,7.30
2019-05-23T06:09:28.879Z,6.80
2019-05-23T06:11:58.698Z,6.77
2019-05-23T06:14:27.730Z,6.07
2019-05-23T06:16:57.409Z,6.90
2019-05-23T06:19:26.703Z,6.63
2019-05-23T06:21:55.840Z,6.17
2019-05-23T06:24:42.399Z,7.07
2019-05-23T06:26:56.245Z,6.40
2019-05-23T06:29:25.889Z,5.67
2019-05-23T06:31:58.838Z,5.97
2019-05-23T06:34:27.823Z,5.87
2019-05-23T06:36:57.501Z,6.27
2019-05-23T06:39:27.150Z,5.93
2019-05-23T06:41:57.131Z,6.33
2019-05-23T06:44:27.257Z,6.27
2019-05-23T06:46:56.584Z,7.07
2019-05-23T06:49:25.933Z,6.10
2019-05-23T06:51:55.038Z,6.57
2019-05-23T06:54:24.491Z,6.00
2019-05-23T06:56:53.567Z,5.93
2019-05-23T06:59:22.645Z,5.93
2019-05-23T07:01:53.275Z,5.57
2019-05-23T07:04:22.540Z,5.50
2019-05-23T07:06:52.613Z,6.20
2019-05-23T07:09:22.736Z,5.80
2019-05-23T07:11:55.960Z,6.10
2019-05-23T07:14:25.836Z,6.63
2019-05-23T07:16:54.918Z,6.37
2019-05-23T07:19:24.110Z,6.13
2019-05-23T07:21:53.398Z,6.63
2019-05-23T07:24:22.759Z,5.90
2019-05-23T07:26:51.834Z,5.90
2019-05-23T07:29:21.492Z,6.57
2019-05-23T07:31:51.099Z,6.70
2019-05-23T07:34:21.270Z,6.10
2019-05-23T07:36:50.673Z,6.10
2019-05-23T07:39:20.339Z,5.63
2019-05-23T07:41:49.759Z,6.03
2019-05-23T07:44:19.196Z,6.27
2019-05-23T07:46:48.338Z,6.50
2019-05-23T07:49:17.632Z,6.20
2019-05-23T07:51:46.988Z,6.10
2019-05-23T07:54:44.910Z,6.20
2019-05-23T07:57:17.794Z,6.57
2019-05-23T07:59:47.900Z,6.33
2019-05-23T08:02:27.071Z,6.80
2019-05-23T08:04:56.350Z,6.80
2019-05-23T08:07:25.750Z,7.17
2019-05-23T08:09:56.488Z,7.00
2019-05-23T08:12:25.768Z,7.10
2019-05-23T08:14:54.957Z,7.27
2019-05-23T08:17:24.730Z,7.97
2019-05-23T08:19:54.119Z,7.00
2019-05-23T08:22:27.949Z,7.40
2019-05-23T08:24:57.587Z,7.73
2019-05-23T08:27:26.579Z,6.73
2019-05-23T08:29:56.466Z,7.47
2019-05-23T08:32:25.723Z,7.30
2019-05-23T08:34:58.201Z,7.07
2019-05-23T08:37:27.859Z,6.43
2019-05-23T08:39:56.996Z,6.10
2019-05-23T08:42:26.428Z,6.20
2019-05-23T08:44:57.184Z,6.50
2019-05-23T08:47:26.366Z,6.10
2019-05-23T08:49:55.532Z,5.70
2019-05-23T08:52:26.153Z,5.47
2019-05-23T08:54:58.631Z,4.60
2019-05-23T08:57:28.090Z,4.23
2019-05-23T08:59:57.440Z,3.50
2019-05-23T09:02:27.438Z,4.23
2019-05-23T09:05:05.139Z,3.87
2019-05-23T09:07:28.798Z,3.80
2019-05-23T09:09:58.490Z,3.07
2019-05-23T09:12:27.589Z,2.73
2019-05-23T09:14:56.756Z,2.70
2019-05-23T09:17:26.105Z,2.47
2019-05-23T09:19:55.269Z,2.43
2019-05-23T09:22:24.495Z,2.03
2019-05-23T09:24:54.087Z,1.93
2019-05-23T09:27:42.267Z,2.27
2019-05-23T09:30:13.269Z,2.10
2019-05-23T09:32:42.338Z,2.00
2019-05-23T09:35:20.933Z,2.00
2019-05-23T09:37:43.708Z,1.70
2019-05-23T09:40:13.107Z,1.63
2019-05-23T09:42:42.360Z,1.77
2019-05-23T09:45:11.971Z,1.50
2019-05-23T09:47:41.536Z,1.33
2019-05-23T09:50:14.020Z,1.50
2019-05-23T09:52:43.364Z,1.13
2019-05-23T09:55:13.629Z,1.47
2019-05-23T09:57:42.927Z,1.40
2019-05-23T10:00:15.275Z,1.13
2019-05-23T10:02:44.416Z,1.40
2019-05-23T10:05:14.130Z,2.17
2019-05-23T10:07:43.436Z,1.60
2019-05-23T10:10:12.903Z,1.60
2019-05-23T10:12:41.977Z,1.40
2019-05-23T10:15:19.898Z,1.63
2019-05-23T10:17:49.062Z,1.20
2019-05-23T10:20:18.737Z,1.70
2019-05-23T10:22:47.839Z,1.30
2019-05-23T10:25:16.924Z,1.27
2019-05-23T10:27:45.937Z,1.37
2019-05-23T10:30:17.559Z,1.47
2019-05-23T10:32:46.725Z,1.30
2019-05-23T10:35:16.706Z,1.20
2019-05-23T10:37:46.305Z,1.20
2019-05-23T10:40:17.162Z,1.13
2019-05-23T10:42:46.221Z,1.00
2019-05-23T10:45:15.829Z,1.07
2019-05-23T10:47:44.901Z,1.20
2019-05-23T10:50:14.427Z,1.00
2019-05-23T10:52:48.227Z,1.30
2019-05-23T10:55:17.525Z,1.43
2019-05-23T10:57:46.813Z,1.20
2019-05-23T11:00:20.037Z,1.40
2019-05-23T11:02:50.589Z,1.80
2019-05-23T11:05:23.028Z,1.70
2019-05-23T11:07:52.214Z,1.73
2019-05-23T11:10:21.961Z,1.70
2019-05-23T11:12:51.159Z,2.40
2019-05-23T11:15:20.764Z,1.43
2019-05-23T11:17:53.796Z,1.30
2019-05-23T11:20:23.247Z,1.70
2019-05-23T11:22:55.078Z,1.93
2019-05-23T11:25:24.630Z,1.30
2019-05-23T11:27:56.726Z,1.20
2019-05-23T11:30:32.295Z,1.10
2019-05-23T11:33:01.311Z,1.20
2019-05-23T11:35:30.842Z,1.00
2019-05-23T11:38:00.213Z,1.07
2019-05-23T11:40:29.559Z,1.00
2019-05-23T11:43:00.490Z,1.03
2019-05-23T11:45:32.617Z,0.90
2019-05-23T11:48:01.938Z,1.00
2019-05-23T11:50:31.371Z,0.80
2019-05-23T11:53:00.598Z,0.87
2019-05-23T11:55:29.802Z,0.90
2019-05-23T11:57:59.050Z,1.47
2019-05-23T12:00:58.653Z,1.60
2019-05-23T12:03:27.812Z,0.90
2019-05-23T12:05:56.897Z,0.87
2019-05-23T12:08:27.056Z,0.87
2019-05-23T12:10:56.203Z,1.00
2019-05-23T12:13:25.564Z,1.00
2019-05-23T12:15:57.103Z,0.90
2019-05-23T12:18:26.252Z,1.37
2019-05-23T12:20:59.553Z,1.10
2019-05-23T12:23:27.843Z,1.00
2019-05-23T12:25:58.842Z,1.30
2019-05-23T12:28:28.378Z,1.30
2019-05-23T12:30:57.766Z,0.87
2019-05-23T12:33:26.867Z,1.00
2019-05-23T12:35:55.871Z,1.00
2019-05-23T12:38:25.097Z,1.13
2019-05-23T12:40:54.137Z,1.20
2019-05-23T12:43:23.279Z,1.00
2019-05-23T12:45:52.437Z,1.20
2019-05-23T12:48:40.581Z,1.20
2019-05-23T12:51:10.249Z,0.83
2019-05-23T12:53:39.531Z,1.20
2019-05-23T12:56:08.817Z,1.20
2019-05-23T12:58:38.998Z,1.40
2019-05-23T13:01:14.611Z,1.30
2019-05-23T13:03:41.802Z,1.40
2019-05-23T13:06:10.954Z,1.50
2019-05-23T13:08:40.142Z,1.50
2019-05-23T13:11:09.848Z,1.50
2019-05-23T13:13:39.049Z,1.70
2019-05-23T13:16:08.311Z,1.80
2019-05-23T13:18:37.641Z,1.60
2019-05-23T13:21:06.702Z,1.60
2019-05-23T13:23:35.842Z,1.50
2019-05-23T13:26:05.084Z,1.93
2019-05-23T13:28:34.354Z,1.40
2019-05-23T13:31:03.524Z,1.60
2019-05-23T13:33:32.842Z,1.67
2019-05-23T13:36:02.178Z,1.83
2019-05-23T13:38:31.463Z,1.80
2019-05-23T13:41:00.883Z,1.57
2019-05-23T13:43:30.109Z,1.47
2019-05-23T13:45:59.273Z,1.80
2019-05-23T13:48:28.576Z,1.90
2019-05-23T13:50:57.941Z,1.67
2019-05-23T13:53:27.312Z,1.67
2019-05-23T13:55:56.481Z,2.10
2019-05-23T13:58:25.644Z,2.20
2019-05-23T14:00:55.043Z,1.93
2019-05-23T14:03:25.101Z,1.83
2019-05-23T14:05:54.248Z,2.03
2019-05-23T14:08:23.384Z,2.03
2019-05-23T14:10:52.750Z,2.23
2019-05-23T14:13:22.363Z,1.80
2019-05-23T14:15:52.681Z,2.10
2019-05-23T14:18:22.507Z,2.07
2019-05-23T14:20:51.835Z,1.90
2019-05-23T14:23:29.229Z,1.70
2019-05-23T14:25:59.703Z,2.10
2019-05-23T14:28:29.446Z,2.47
2019-05-23T14:31:27.093Z,1.67
2019-05-23T14:34:24.396Z,1.80
2019-05-23T14:37:11.135Z,1.90
2019-05-23T14:39:44.278Z,2.27
2019-05-23T14:42:31.155Z,1.70
2019-05-23T14:45:00.411Z,1.90
2019-05-23T14:47:44.628Z,1.60
2019-05-23T14:50:32.280Z,1.70
2019-05-23T14:53:03.511Z,1.70
2019-05-23T14:55:32.735Z,1.80
2019-05-23T14:58:01.719Z,1.80
2019-05-23T15:00:31.591Z,1.87
2019-05-23T15:03:00.653Z,1.50
2019-05-23T15:05:30.112Z,1.90
2019-05-23T15:07:59.307Z,1.70
2019-05-23T15:10:29.107Z,1.60
2019-05-23T15:12:59.968Z,1.60
2019-05-23T15:15:29.401Z,2.10
2019-05-23T15:17:58.652Z,2.53
2019-05-23T15:20:27.888Z,2.10
2019-05-23T15:22:59.846Z,2.30
2019-05-23T15:25:27.986Z,2.03
2019-05-23T15:27:57.282Z,1.83
2019-05-23T15:30:26.452Z,1.80
2019-05-23T15:32:55.561Z,1.60
2019-05-23T15:35:25.188Z,1.80
2019-05-23T15:37:54.268Z,1.53
2019-05-23T15:40:23.839Z,1.30
2019-05-23T15:42:53.281Z,1.30
2019-05-23T15:45:22.402Z,1.30
2019-05-23T15:47:51.771Z,1.30
2019-05-23T15:50:23.509Z,1.40
2019-05-23T15:53:08.498Z,1.30
2019-05-23T15:56:24.029Z,1.40
2019-05-23T15:58:52.723Z,1.60
2019-05-23T16:01:30.899Z,1.33
2019-05-23T16:04:03.931Z,2.23
2019-05-23T16:06:34.623Z,1.33
2019-05-23T16:09:07.269Z,1.27
2019-05-23T16:11:36.862Z,1.23
2019-05-23T16:14:06.008Z,4.33
2019-05-23T16:16:35.260Z,1.50
2019-05-23T16:19:04.788Z,3.27
2019-05-23T16:21:33.967Z,3.47
2019-05-23T16:24:04.056Z,2.53
2019-05-23T16:26:33.319Z,1.67
2019-05-23T16:29:02.619Z,1.47
2019-05-23T16:31:31.714Z,1.40
2019-05-23T16:34:04.879Z,1.40
2019-05-23T16:36:34.359Z,1.60
2019-05-23T16:39:04.399Z,1.63
2019-05-23T16:41:33.624Z,1.50
2019-05-23T16:44:02.727Z,1.33
2019-05-23T16:46:32.125Z,1.40
2019-05-23T16:49:01.389Z,1.67
2019-05-23T16:51:30.553Z,1.30
2019-05-23T16:54:00.128Z,1.30
2019-05-23T16:56:48.419Z,1.30
2019-05-23T16:59:32.447Z,1.40
2019-05-23T17:02:29.664Z,1.40
2019-05-23T17:05:20.599Z,1.20
2019-05-23T17:08:06.509Z,1.10
2019-05-23T17:10:40.941Z,1.33
2019-05-23T17:13:15.970Z,1.33
2019-05-23T17:16:00.177Z,1.20
2019-05-23T17:18:46.960Z,1.40
2019-05-23T17:21:47.391Z,1.40
2019-05-23T17:24:31.360Z,1.20
2019-05-23T17:27:08.374Z,1.30
2019-05-23T17:29:46.524Z,1.40
2019-05-23T17:32:19.235Z,2.03
2019-05-23T17:34:48.512Z,1.40
2019-05-23T17:37:19.326Z,2.70
2019-05-23T17:39:49.072Z,1.30
2019-05-23T17:42:21.504Z,1.30
2019-05-23T17:44:50.643Z,1.20
2019-05-23T17:47:20.000Z,1.10
2019-05-23T17:49:49.175Z,1.20
2019-05-23T17:52:18.865Z,1.23
2019-05-23T17:54:47.944Z,1.00
2019-05-23T17:57:19.987Z,1.30
2019-05-23T17:59:49.265Z,0.90
2019-05-23T18:02:18.989Z,1.10
2019-05-23T18:04:48.334Z,1.27
2019-05-23T18:07:20.951Z,1.00
2019-05-23T18:09:50.116Z,1.27
2019-05-23T18:12:19.854Z,1.10
2019-05-23T18:14:49.661Z,1.30
2019-05-23T18:17:19.060Z,1.20
2019-05-23T18:19:48.304Z,1.10
2019-05-23T18:22:18.383Z,1.20
2019-05-23T18:24:47.934Z,1.17
2019-05-23T18:27:17.197Z,1.30
2019-05-23T18:29:46.318Z,1.17
2019-05-23T18:32:20.681Z,1.17
2019-05-23T18:34:49.967Z,1.30
2019-05-23T18:37:19.613Z,1.20
2019-05-23T18:39:48.812Z,1.10
2019-05-23T18:42:19.121Z,1.43
2019-05-23T18:44:49.400Z,1.20
2019-05-23T18:47:24.762Z,1.20
2019-05-23T18:49:54.116Z,1.60
2019-05-23T18:52:23.190Z,1.20
2019-05-23T18:54:52.377Z,1.20
2019-05-23T18:57:21.680Z,1.40
2019-05-23T18:59:50.831Z,1.10
2019-05-23T19:02:20.287Z,2.20
2019-05-23T19:04:51.019Z,1.77
2019-05-23T19:07:20.300Z,2.40
2019-05-23T19:09:52.414Z,1.70
2019-05-23T19:12:23.304Z,1.30
2019-05-23T19:14:52.374Z,1.80
2019-05-23T19:17:21.580Z,1.53
2019-05-23T19:19:50.682Z,1.10
2019-05-23T19:22:19.810Z,1.50
2019-05-23T19:24:49.583Z,1.10
2019-05-23T19:27:19.851Z,1.33
2019-05-23T19:29:50.070Z,1.27
2019-05-23T19:32:19.704Z,1.40
2019-05-23T19:34:49.138Z,1.63
2019-05-23T19:37:18.708Z,1.43
2019-05-23T19:39:50.948Z,1.30
2019-05-23T19:42:20.422Z,1.30
2019-05-23T19:44:49.608Z,1.40
2019-05-23T19:47:19.073Z,1.60
2019-05-23T19:49:48.316Z,1.47
2019-05-23T19:52:18.027Z,1.70
2019-05-23T19:54:47.571Z,1.50
2019-05-23T19:57:16.849Z,1.63
2019-05-23T19:59:46.002Z,1.47
2019-05-23T20:02:34.273Z,1.20
2019-05-23T20:05:11.455Z,1.40
2019-05-23T20:07:40.867Z,1.23
2019-05-23T20:10:10.893Z,0.97
2019-05-23T20:12:39.959Z,1.60
2019-05-23T20:15:09.471Z,1.57
2019-05-23T20:17:38.656Z,1.60
2019-05-23T20:20:08.197Z,1.53
2019-05-23T20:22:37.388Z,1.50
2019-05-23T20:25:06.787Z,1.50
2019-05-23T20:27:35.802Z,1.40
2019-05-23T20:30:09.960Z,1.30
2019-05-23T20:32:39.051Z,1.27
2019-05-23T20:35:08.315Z,1.50
2019-05-23T20:37:38.603Z,1.53
2019-05-23T20:40:08.109Z,1.93
2019-05-23T20:42:37.254Z,1.63
2019-05-23T20:45:06.715Z,1.40
2019-05-23T20:47:36.185Z,1.50
2019-05-23T20:50:06.009Z,1.40
2019-05-23T20:52:35.070Z,2.20
2019-05-23T20:55:04.376Z,1.80
2019-05-23T20:57:33.442Z,1.70
2019-05-23T21:00:02.784Z,2.20
2019-05-23T21:02:32.092Z,1.73
2019-05-23T21:05:01.179Z,2.40
2019-05-23T21:07:30.668Z,2.50
2019-05-23T21:09:59.755Z,2.40
2019-05-23T21:12:30.359Z,2.03
2019-05-23T21:14:59.846Z,1.70
2019-05-23T21:17:30.582Z,1.63
2019-05-23T21:20:05.934Z,1.80
2019-05-23T21:22:35.094Z,1.57
2019-05-23T21:25:04.577Z,1.67
2019-05-23T21:27:33.823Z,1.70
2019-05-23T21:30:03.011Z,1.90
2019-05-23T21:32:32.088Z,2.00
2019-05-23T21:35:01.420Z,1.93
2019-05-23T21:37:30.533Z,1.93
2019-05-23T21:39:59.806Z,2.10
2019-05-23T21:42:44.939Z,1.83
2019-05-23T21:45:00.274Z,1.60
2019-05-23T21:47:29.555Z,1.80
2019-05-23T21:49:58.963Z,2.00
2019-05-23T21:52:28.053Z,1.90
2019-05-23T21:54:57.188Z,1.80
2019-05-23T21:57:26.455Z,1.70
2019-05-23T21:59:58.473Z,1.97
2019-05-23T22:02:32.239Z,2.20
2019-05-23T22:05:10.596Z,2.20
2019-05-23T22:07:39.828Z,2.13
2019-05-23T22:10:09.679Z,2.30
2019-05-23T22:12:39.056Z,1.87
2019-05-23T22:15:08.765Z,2.27
2019-05-23T22:17:38.015Z,2.37
2019-05-23T22:20:07.087Z,1.87
2019-05-23T22:22:36.294Z,2.10
2019-05-23T22:25:05.610Z,2.60
2019-05-23T22:27:35.060Z,2.77
2019-05-23T22:30:05.695Z,2.83
2019-05-23T22:32:34.767Z,2.77
2019-05-23T22:35:16.579Z,2.53
2019-05-23T22:37:45.751Z,2.20
2019-05-23T22:40:16.858Z,2.50
2019-05-23T22:42:48.265Z,1.97
2019-05-23T22:45:20.225Z,2.07
2019-05-23T22:47:54.329Z,2.50
2019-05-23T22:50:23.402Z,2.20
2019-05-23T22:52:52.479Z,2.10
2019-05-23T22:55:21.862Z,2.00
2019-05-23T22:57:50.905Z,2.20
2019-05-23T23:00:28.039Z,2.20
2019-05-23T23:02:57.327Z,2.07
2019-05-23T23:05:26.317Z,2.33
2019-05-23T23:07:55.889Z,2.33
2019-05-23T23:10:25.027Z,2.40
2019-05-23T23:12:54.155Z,2.30
2019-05-23T23:15:24.270Z,2.00
2019-05-23T23:17:53.390Z,2.30
2019-05-23T23:20:22.383Z,2.10
2019-05-23T23:22:51.674Z,2.20
2019-05-23T23:25:20.780Z,2.30
2019-05-23T23:27:49.913Z,2.10
2019-05-23T23:30:22.991Z,2.40
2019-05-23T23:32:52.115Z,2.60
2019-05-23T23:35:21.193Z,2.40
2019-05-23T23:37:50.599Z,2.30
2019-05-23T23:40:19.846Z,2.70
2019-05-23T23:42:48.970Z,2.33
2019-05-23T23:45:36.001Z,2.17
2019-05-23T23:48:22.790Z,2.60
2019-05-23T23:51:10.226Z,2.10
2019-05-23T23:53:56.905Z,2.23
2019-05-23T23:56:44.050Z,2.50
2019-05-23T23:59:12.286Z,2.60
